Time;durP1;ratioP1;P1;durP2;ratioP2;P2;SDS_P1;SDS_P2;PMS_P1;PMS_P2;Temp;Humidity;BMP_temperature;BMP_pressure;BME280_temperature;BME280_humidity;BME280_pressure;Samples;Min_cycle;Max_cycle;Signal;HPM_P1;HPM_P2
2021/07/05 00:02:14;;;;;;;636.33;581.53;;;;;;;;;;5245876;27;20052;-84
2021/07/05 00:04:43;;;;;;;619.70;565.80;;;;;;;;;;5263636;27;20053;-84
2021/07/05 00:07:14;;;;;;;620.30;565.58;;;;;;;;;;5262627;27;20032;-84
2021/07/05 00:09:43;;;;;;;644.33;588.87;;;;;;;;;;5261890;27;20037;-85
2021/07/05 00:12:11;;;;;;;702.55;634.87;;;;;;;;;;5264319;27;20046;-85
2021/07/05 00:14:40;;;;;;;530.58;484.77;;;;;;;;;;5263727;27;20121;-84
2021/07/05 00:17:09;;;;;;;716.30;651.55;;;;;;;;;;5264325;27;20447;-85
2021/07/05 00:19:38;;;;;;;743.83;674.72;;;;;;;;;;5264627;27;20089;-85
2021/07/05 00:22:07;;;;;;;692.03;628.55;;;;;;;;;;5265157;27;20072;-87
2021/07/05 00:24:35;;;;;;;687.72;625.87;;;;;;;;;;5263302;27;20076;-85
2021/07/05 00:27:04;;;;;;;564.25;515.92;;;;;;;;;;5264891;27;20037;-87
2021/07/05 00:29:32;;;;;;;665.80;606.83;;;;;;;;;;5263277;27;20401;-87
2021/07/05 00:32:01;;;;;;;466.25;428.75;;;;;;;;;;5265244;27;20075;-87
2021/07/05 00:34:30;;;;;;;512.70;469.27;;;;;;;;;;5263280;27;20450;-85
2021/07/05 00:36:58;;;;;;;405.08;372.67;;;;;;;;;;5264042;27;20338;-84
2021/07/05 00:39:27;;;;;;;613.33;559.03;;;;;;;;;;5244865;27;20061;-84
2021/07/05 00:41:56;;;;;;;612.08;559.53;;;;;;;;;;5264923;27;20297;-85
2021/07/05 00:44:24;;;;;;;632.33;576.53;;;;;;;;;;5264365;27;20084;-85
2021/07/05 00:46:53;;;;;;;661.17;603.42;;;;;;;;;;5263581;27;20025;-85
2021/07/05 00:49:21;;;;;;;646.75;587.10;;;;;;;;;;5265233;27;20037;-84
2021/07/05 00:52:07;;;;;;;753.97;684.05;;;;;;;;;;5264920;27;20092;-84
2021/07/05 00:54:36;;;;;;;635.75;580.22;;;;;;;;;;5264056;27;20041;-84
2021/07/05 00:57:05;;;;;;;417.37;382.17;;;;;;;;;;5264317;27;20033;-84
2021/07/05 00:59:33;;;;;;;681.63;622.63;;;;;;;;;;5264955;27;20022;-85
2021/07/05 01:02:01;;;;;;;400.05;367.37;;;;;;;;;;5263916;27;20053;-84
2021/07/05 01:04:30;;;;;;;583.20;531.72;;;;;;;;;;5263669;27;20491;-84
2021/07/05 01:06:59;;;;;;;459.13;421.42;;;;;;;;;;5264851;27;20047;-84
2021/07/05 01:09:27;;;;;;;678.12;617.95;;;;;;;;;;5241602;27;20049;-85
2021/07/05 01:12:00;;;;;;;537.67;493.65;;;;;;;;;;5259808;27;20021;-84
2021/07/05 01:14:28;;;;;;;602.35;550.75;;;;;;;;;;5263522;27;20036;-84
2021/07/05 01:16:57;;;;;;;488.87;448.83;;;;;;;;;;5257676;27;20056;-85
2021/07/05 01:19:26;;;;;;;630.70;574.60;;;;;;;;;;5256734;27;20583;-88
2021/07/05 01:21:55;;;;;;;557.83;511.12;;;;;;;;;;5260217;27;20554;-84
2021/07/05 01:24:26;;;;;;;579.45;530.60;;;;;;;;;;5254172;27;20081;-85
2021/07/05 01:26:54;;;;;;;572.33;524.30;;;;;;;;;;5260804;27;20033;-84
2021/07/05 01:29:23;;;;;;;660.95;603.00;;;;;;;;;;5264046;27;20018;-86
2021/07/05 01:31:51;;;;;;;539.78;494.23;;;;;;;;;;5265488;27;20061;-85
2021/07/05 01:34:20;;;;;;;612.17;560.05;;;;;;;;;;5259749;27;20038;-85
2021/07/05 01:36:49;;;;;;;497.27;456.52;;;;;;;;;;5257959;27;20044;-86
2021/07/05 01:39:18;;;;;;;616.75;564.00;;;;;;;;;;5265557;27;20034;-84
2021/07/05 01:41:47;;;;;;;529.35;485.70;;;;;;;;;;5258495;27;20052;-85
2021/07/05 01:44:18;;;;;;;681.33;622.85;;;;;;;;;;5262765;27;20667;-86
2021/07/05 01:46:46;;;;;;;448.83;414.02;;;;;;;;;;5260903;27;20458;-85
2021/07/05 01:49:15;;;;;;;455.77;420.62;;;;;;;;;;5263107;27;20067;-85
2021/07/05 01:51:44;;;;;;;474.33;438.08;;;;;;;;;;5261753;27;20045;-84
2021/07/05 01:54:13;;;;;;;521.60;479.67;;;;;;;;;;5263353;27;20072;-85
2021/07/05 01:56:43;;;;;;;637.15;582.35;;;;;;;;;;5263900;27;20040;-86
2021/07/05 01:59:32;;;;;;;400.23;372.17;;;;;;;;;;5261316;27;20056;-85
2021/07/05 02:02:00;;;;;;;441.05;408.90;;;;;;;;;;5260924;27;20052;-85
2021/07/05 02:04:29;;;;;;;496.67;456.17;;;;;;;;;;5263622;27;20290;-85
2021/07/05 02:06:58;;;;;;;545.60;501.20;;;;;;;;;;5259439;27;20021;-84
2021/07/05 02:09:27;;;;;;;517.87;476.98;;;;;;;;;;5264649;27;20445;-85
2021/07/05 02:11:56;;;;;;;658.22;601.85;;;;;;;;;;5261350;27;20025;-85
2021/07/05 02:14:24;;;;;;;520.90;478.77;;;;;;;;;;5261204;27;20045;-84
2021/07/05 02:16:53;;;;;;;620.90;570.10;;;;;;;;;;5263113;27;20037;-86
2021/07/05 02:19:22;;;;;;;699.92;636.03;;;;;;;;;;5263393;27;20669;-85
2021/07/05 02:21:51;;;;;;;706.80;644.62;;;;;;;;;;5262395;27;20029;-85
2021/07/05 02:24:19;;;;;;;672.45;612.17;;;;;;;;;;5260588;27;20398;-84
2021/07/05 02:26:48;;;;;;;666.22;608.20;;;;;;;;;;5259637;27;20089;-84
2021/07/05 02:29:16;;;;;;;632.40;578.03;;;;;;;;;;5259871;27;20061;-85
2021/07/05 02:31:45;;;;;;;609.17;557.62;;;;;;;;;;5261921;27;20056;-85
2021/07/05 02:34:14;;;;;;;544.72;501.23;;;;;;;;;;5258357;27;20049;-85
2021/07/05 02:36:42;;;;;;;582.20;533.90;;;;;;;;;;5248420;27;20044;-85
2021/07/05 02:39:11;;;;;;;451.92;418.83;;;;;;;;;;5247179;27;20145;-85
2021/07/05 02:41:40;;;;;;;637.28;582.70;;;;;;;;;;5246759;27;20061;-85
2021/07/05 02:44:08;;;;;;;695.85;630.95;;;;;;;;;;5255337;27;20500;-84
2021/07/05 02:46:37;;;;;;;687.75;626.22;;;;;;;;;;5250374;27;20033;-84
2021/07/05 02:49:06;;;;;;;714.95;651.35;;;;;;;;;;5246737;27;20034;-85
2021/07/05 02:51:35;;;;;;;399.70;371.27;;;;;;;;;;5244676;27;20930;-84
2021/07/05 02:54:03;;;;;;;394.58;367.23;;;;;;;;;;5253390;27;20484;-84
2021/07/05 02:56:32;;;;;;;385.85;358.17;;;;;;;;;;5237877;27;20021;-85
2021/07/05 02:59:01;;;;;;;677.20;615.72;;;;;;;;;;5262450;27;20472;-86
2021/07/05 03:01:29;;;;;;;593.50;544.10;;;;;;;;;;5260489;27;20049;-85
2021/07/05 03:03:59;;;;;;;497.48;457.25;;;;;;;;;;5268280;27;20116;-85
2021/07/05 03:06:27;;;;;;;382.90;355.42;;;;;;;;;;5260616;27;20584;-87
2021/07/05 03:08:55;;;;;;;678.35;619.15;;;;;;;;;;5261994;27;20030;-85
2021/07/05 04:30:03;;;;;;;713.55;643.80;;;;;;;;;;5189740;27;20151;-86
2021/07/05 04:39:17;;;;;;;532.40;486.80;;;;;;;;;;5148072;27;20094;-89
2021/07/05 04:42:45;;;;;;;724.83;653.47;;;;;;;;;;5124951;27;20043;-86
2021/07/05 04:49:11;;;;;;;734.15;663.55;;;;;;;;;;5162058;27;20027;-85
2021/07/05 04:52:25;;;;;;;650.85;591.33;;;;;;;;;;5168935;27;20460;-85
2021/07/05 04:55:40;;;;;;;578.70;530.17;;;;;;;;;;5168177;27;20114;-87
2021/07/05 04:58:47;;;;;;;700.75;632.55;;;;;;;;;;5151557;27;20077;-86
2021/07/05 05:01:52;;;;;;;636.17;577.47;;;;;;;;;;5153300;27;20038;-90
2021/07/05 05:04:27;;;;;;;625.38;566.28;;;;;;;;;;5177924;27;20845;-89
2021/07/05 05:07:21;;;;;;;735.47;664.78;;;;;;;;;;5155915;27;20018;-87
2021/07/05 05:10:08;;;;;;;466.15;429.92;;;;;;;;;;5180053;27;20038;-87
2021/07/05 05:13:15;;;;;;;;;;;;;;;;;;;;;
2021/07/05 05:16:21;;;;;;;549.62;503.08;;;;;;;;;;5161334;27;20040;-86
2021/07/05 05:20:04;;;;;;;;;;;;;;;;;;5109230;27;20097;-85
2021/07/05 05:26:35;;;;;;;583.05;532.95;;;;;;;;;;5145646;27;20027;-88
2021/07/05 05:29:30;;;;;;;652.15;592.08;;;;;;;;;;5151998;27;20119;-86
2021/07/05 05:32:40;;;;;;;598.60;548.17;;;;;;;;;;5176201;27;20081;-88
2021/07/05 05:39:11;;;;;;;567.87;516.78;;;;;;;;;;5185289;27;20035;-88
2021/07/05 05:45:34;;;;;;;601.55;549.15;;;;;;;;;;5185133;27;20433;-86
2021/07/05 05:48:59;;;;;;;579.62;530.87;;;;;;;;;;5167918;27;20317;-88
2021/07/05 05:52:07;;;;;;;561.25;510.95;;;;;;;;;;5141876;27;20473;-87
2021/07/05 06:20:17;;;;;;;573.15;525.25;;;;;;;;;;5221006;27;20082;-82
2021/07/05 06:23:48;;;;;;;616.60;562.00;;;;;;;;;;5031382;28;20076;-88
2021/07/05 06:29:53;;;;;;;514.65;472.13;;;;;;;;;;5072412;28;20078;-87
2021/07/05 09:12:03;;;;;;;795.28;724.90;;;;;;;;;;5218708;27;20308;-86
2021/07/05 09:19:01;;;;;;;;;;;;;;;;;;;;;
2021/07/05 09:25:56;;;;;;;772.97;693.92;;;;;;;;;;5105088;28;20071;-87
2021/07/05 09:35:17;;;;;;;714.85;641.72;;;;;;;;;;5202954;27;20014;-86
2021/07/05 09:38:41;;;;;;;824.38;733.92;;;;;;;;;;5207564;27;20396;-88
2021/07/05 09:45:13;;;;;;;905.42;786.28;;;;;;;;;;5176891;27;20449;-85
2021/07/05 09:51:06;;;;;;;707.62;639.53;;;;;;;;;;5261451;27;20333;-84
2021/07/05 09:53:38;;;;;;;790.40;708.42;;;;;;;;;;5271921;27;20413;-84
2021/07/05 09:56:16;;;;;;;500.92;456.33;;;;;;;;;;5271680;27;20314;-84
2021/07/05 09:58:45;;;;;;;836.47;742.33;;;;;;;;;;5250684;27;20025;-84
2021/07/05 10:01:33;;;;;;;657.45;592.55;;;;;;;;;;5272378;27;20028;-83
2021/07/05 10:04:04;;;;;;;877.88;752.83;;;;;;;;;;5274656;27;20079;-83
2021/07/05 10:06:38;;;;;;;820.90;733.75;;;;;;;;;;5271932;27;20043;-84
2021/07/05 10:09:08;;;;;;;797.17;710.20;;;;;;;;;;5271287;27;20081;-86
2021/07/05 10:11:37;;;;;;;692.58;623.78;;;;;;;;;;5268592;27;20048;-83
2021/07/05 10:14:17;;;;;;;779.83;693.47;;;;;;;;;;5271445;27;20294;-83
2021/07/05 10:16:48;;;;;;;844.25;697.80;;;;;;;;;;5270345;27;20022;-83
2021/07/05 10:19:17;;;;;;;521.50;470.33;;;;;;;;;;5234833;27;20066;-84
2021/07/05 10:21:45;;;;;;;747.20;666.53;;;;;;;;;;5272203;27;20073;-84
2021/07/05 10:24:14;;;;;;;883.75;728.80;;;;;;;;;;5271711;27;20053;-84
2021/07/05 10:26:44;;;;;;;621.80;555.03;;;;;;;;;;5270626;27;20052;-84
2021/07/05 10:29:13;;;;;;;642.30;577.05;;;;;;;;;;5269269;27;20044;-83
2021/07/05 10:31:42;;;;;;;830.55;734.83;;;;;;;;;;5271187;27;20470;-84
2021/07/05 10:34:10;;;;;;;577.20;522.65;;;;;;;;;;5270679;27;20044;-84
2021/07/05 10:36:40;;;;;;;969.92;788.75;;;;;;;;;;5268811;27;20057;-83
2021/07/05 10:39:10;;;;;;;906.15;764.15;;;;;;;;;;5271070;27;20528;-84
2021/07/05 10:41:39;;;;;;;779.08;695.00;;;;;;;;;;5269776;27;20125;-86
2021/07/05 10:44:09;;;;;;;902.15;753.60;;;;;;;;;;5268994;27;20018;-84
2021/07/05 10:46:44;;;;;;;852.33;726.42;;;;;;;;;;5270322;27;20021;-83
2021/07/05 10:49:25;;;;;;;656.75;589.45;;;;;;;;;;5271239;27;20454;-84
2021/07/05 10:51:55;;;;;;;672.75;605.50;;;;;;;;;;5270029;27;20053;-84
2021/07/05 10:54:43;;;;;;;694.25;622.33;;;;;;;;;;5270466;27;20702;-84
2021/07/05 10:57:14;;;;;;;988.95;798.20;;;;;;;;;;5269278;27;20500;-84
2021/07/05 10:59:44;;;;;;;595.90;536.70;;;;;;;;;;5270993;27;20450;-85
2021/07/05 11:02:32;;;;;;;656.25;589.55;;;;;;;;;;5251678;27;20412;-83
2021/07/05 11:05:26;;;;;;;997.35;766.28;;;;;;;;;;5267841;27;20201;-84
2021/07/05 11:07:55;;;;;;;1063.68;808.50;;;;;;;;;;5265534;27;20072;-83
2021/07/05 11:10:26;;;;;;;651.40;581.58;;;;;;;;;;5264211;27;20055;-83
2021/07/05 11:12:59;;;;;;;729.17;649.12;;;;;;;;;;5265832;27;20049;-83
2021/07/05 11:15:46;;;;;;;735.55;649.22;;;;;;;;;;5266763;27;20639;-83
2021/07/05 11:18:53;;;;;;;573.42;515.20;;;;;;;;;;5264623;27;20071;-83
2021/07/05 11:21:24;;;;;;;712.80;634.40;;;;;;;;;;5155841;27;20138;-84
2021/07/05 11:23:58;;;;;;;747.65;664.97;;;;;;;;;;5139475;27;20055;-84
2021/07/05 11:26:28;;;;;;;;;;;;;;;;;;5217464;27;20138;-85
2021/07/05 11:29:16;;;;;;;936.42;744.00;;;;;;;;;;5264315;27;20322;-87
2021/07/05 11:32:03;;;;;;;935.92;747.15;;;;;;;;;;5266205;27;20081;-83
2021/07/05 11:34:33;;;;;;;668.65;599.85;;;;;;;;;;5265685;27;20053;-84
2021/07/05 11:37:14;;;;;;;758.08;646.55;;;;;;;;;;5264932;27;20065;-84
2021/07/05 11:39:47;;;;;;;610.70;548.40;;;;;;;;;;5265446;27;20097;-86
2021/07/05 11:42:23;;;;;;;763.63;663.53;;;;;;;;;;5264336;27;20040;-85
2021/07/05 11:44:54;;;;;;;742.17;642.87;;;;;;;;;;5266823;27;20037;-86
2021/07/05 11:47:47;;;;;;;678.83;603.42;;;;;;;;;;5264495;27;20017;-86
2021/07/05 11:50:25;;;;;;;948.25;752.45;;;;;;;;;;5264592;27;20053;-86
2021/07/05 11:52:55;;;;;;;780.22;670.72;;;;;;;;;;5245670;27;20033;-86
2021/07/05 11:55:26;;;;;;;779.47;682.90;;;;;;;;;;5265614;27;20022;-84
2021/07/05 11:57:56;;;;;;;954.63;741.95;;;;;;;;;;5265688;27;20091;-83
2021/07/05 12:00:26;;;;;;;965.28;722.65;;;;;;;;;;5265310;27;20507;-83
2021/07/05 12:03:03;;;;;;;641.15;565.75;;;;;;;;;;5247705;27;20096;-84
2021/07/05 12:05:32;;;;;;;752.65;668.25;;;;;;;;;;5269510;27;20029;-84
2021/07/05 12:08:02;;;;;;;989.28;757.38;;;;;;;;;;5270010;27;20026;-83
2021/07/05 12:10:30;;;;;;;616.22;549.65;;;;;;;;;;5269604;27;20045;-84
2021/07/05 12:13:11;;;;;;;689.33;614.22;;;;;;;;;;5268042;27;20091;-84
2021/07/05 12:15:41;;;;;;;523.10;465.62;;;;;;;;;;5270761;27;20045;-84
2021/07/05 12:18:14;;;;;;;983.50;774.38;;;;;;;;;;5268261;27;20482;-84
2021/07/05 12:20:44;;;;;;;575.60;515.42;;;;;;;;;;5268981;27;20025;-84
2021/07/05 12:23:13;;;;;;;783.78;647.87;;;;;;;;;;5271223;27;20046;-84
2021/07/05 12:25:42;;;;;;;748.65;662.12;;;;;;;;;;5270301;27;20028;-84
2021/07/05 12:28:15;;;;;;;549.00;492.90;;;;;;;;;;5268883;27;20036;-84
2021/07/05 12:30:47;;;;;;;671.58;597.42;;;;;;;;;;5270174;27;20041;-83
2021/07/05 12:33:17;;;;;;;464.05;414.42;;;;;;;;;;5268302;27;20062;-83
2021/07/05 12:35:45;;;;;;;805.75;675.85;;;;;;;;;;5269296;27;20022;-83
2021/07/05 12:38:17;;;;;;;676.13;599.15;;;;;;;;;;5270063;27;20028;-84
2021/07/05 12:40:46;;;;;;;601.70;535.28;;;;;;;;;;5270199;27;20029;-83
2021/07/05 12:43:14;;;;;;;891.97;715.50;;;;;;;;;;5247189;27;20045;-84
2021/07/05 12:45:45;;;;;;;914.53;730.40;;;;;;;;;;5270249;27;20092;-82
2021/07/05 12:48:15;;;;;;;874.83;679.47;;;;;;;;;;5269384;27;20520;-83
2021/07/05 12:50:47;;;;;;;779.40;642.45;;;;;;;;;;5271032;27;20044;-84
2021/07/05 12:53:17;;;;;;;547.30;487.48;;;;;;;;;;5269613;27;20043;-84
2021/07/05 12:55:54;;;;;;;818.13;670.30;;;;;;;;;;5251314;27;20021;-83
2021/07/05 12:58:38;;;;;;;590.62;523.83;;;;;;;;;;5271149;27;20446;-83
2021/07/05 13:01:08;;;;;;;892.67;707.53;;;;;;;;;;5268376;27;20047;-83
2021/07/05 13:03:37;;;;;;;869.70;671.78;;;;;;;;;;5272339;27;20662;-83
2021/07/05 13:06:08;;;;;;;775.92;662.22;;;;;;;;;;5269554;27;20442;-83
2021/07/05 13:08:39;;;;;;;891.95;684.35;;;;;;;;;;5270608;27;20022;-83
2021/07/05 13:11:16;;;;;;;583.60;500.35;;;;;;;;;;5268554;27;20037;-83
2021/07/05 13:13:45;;;;;;;622.10;540.15;;;;;;;;;;5269289;27;20056;-83
2021/07/05 13:16:19;;;;;;;902.05;674.20;;;;;;;;;;5269589;27;20025;-83
2021/07/05 13:18:48;;;;;;;699.72;593.35;;;;;;;;;;5248765;27;20391;-83
2021/07/05 13:21:28;;;;;;;213.32;191.73;;;;;;;;;;5266473;27;20025;-84
2021/07/05 13:23:57;;;;;;;520.12;427.08;;;;;;;;;;5266231;27;20009;-83
2021/07/05 13:26:36;;;;;;;391.83;320.70;;;;;;;;;;5269080;27;20047;-83
2021/07/05 13:29:13;;;;;;;486.77;405.55;;;;;;;;;;5267941;27;20029;-83
2021/07/05 13:31:42;;;;;;;784.83;632.38;;;;;;;;;;5266677;27;20091;-83
2021/07/05 13:34:30;;;;;;;650.35;497.45;;;;;;;;;;5270684;27;20351;-83
2021/07/05 13:36:58;;;;;;;734.95;578.08;;;;;;;;;;5268885;27;20060;-83
2021/07/05 13:39:31;;;;;;;664.28;547.35;;;;;;;;;;5270238;27;20010;-86
2021/07/05 13:42:03;;;;;;;773.62;612.22;;;;;;;;;;5269397;27;20057;-86
2021/07/05 13:44:31;;;;;;;504.83;445.17;;;;;;;;;;5270301;27;20014;-85
2021/07/05 13:47:23;;;;;;;643.50;559.35;;;;;;;;;;5270544;27;20361;-85
2021/07/05 13:50:11;;;;;;;582.92;519.65;;;;;;;;;;5258162;27;20061;-85
2021/07/05 13:52:44;;;;;;;618.45;552.37;;;;;;;;;;5266658;27;20040;-85
2021/07/05 13:55:33;;;;;;;618.72;553.70;;;;;;;;;;5270420;27;20006;-85
2021/07/05 13:58:09;;;;;;;399.15;360.73;;;;;;;;;;5268978;27;20060;-85
2021/07/05 14:00:48;;;;;;;493.55;445.20;;;;;;;;;;5269198;27;20005;-86
2021/07/05 14:03:19;;;;;;;715.75;638.47;;;;;;;;;;5270462;27;20021;-86
2021/07/05 14:05:48;;;;;;;637.00;569.90;;;;;;;;;;5271755;27;20281;-86
2021/07/05 14:08:19;;;;;;;462.67;420.55;;;;;;;;;;5250378;27;20018;-86
2021/07/05 14:10:48;;;;;;;796.22;697.05;;;;;;;;;;5264969;27;20029;-85
2021/07/05 14:13:18;;;;;;;563.65;506.48;;;;;;;;;;5264439;27;20053;-85
2021/07/05 14:15:47;;;;;;;669.88;601.05;;;;;;;;;;5264792;27;20049;-85
2021/07/05 14:18:15;;;;;;;470.38;425.38;;;;;;;;;;5262811;27;20248;-85
2021/07/05 14:20:45;;;;;;;764.45;681.63;;;;;;;;;;5265207;27;20033;-86
2021/07/05 14:23:14;;;;;;;713.47;643.58;;;;;;;;;;5264206;27;20041;-85
2021/07/05 14:25:44;;;;;;;748.22;670.38;;;;;;;;;;5264644;27;20432;-85
2021/07/05 14:28:13;;;;;;;386.83;353.00;;;;;;;;;;5268051;27;20388;-86
2021/07/05 14:30:42;;;;;;;645.33;581.37;;;;;;;;;;5269949;27;20006;-85
2021/07/05 14:33:10;;;;;;;726.08;652.75;;;;;;;;;;5267604;27;20030;-85
2021/07/05 14:35:40;;;;;;;440.95;401.02;;;;;;;;;;5270158;27;20025;-86
2021/07/05 14:38:09;;;;;;;505.92;459.00;;;;;;;;;;5264152;27;20045;-86
2021/07/05 14:40:38;;;;;;;645.78;580.92;;;;;;;;;;5270500;27;20017;-86
2021/07/05 14:43:07;;;;;;;620.00;561.88;;;;;;;;;;5269197;27;20014;-85
2021/07/05 14:45:35;;;;;;;485.73;442.02;;;;;;;;;;5251844;27;20018;-85
2021/07/05 14:48:04;;;;;;;377.38;348.83;;;;;;;;;;5247945;27;20376;-86
2021/07/05 14:50:33;;;;;;;604.75;546.17;;;;;;;;;;5270041;27;20505;-86
2021/07/05 14:53:03;;;;;;;724.28;648.92;;;;;;;;;;5268822;27;20548;-85
2021/07/05 14:55:32;;;;;;;647.63;581.22;;;;;;;;;;5262497;27;20086;-85
2021/07/05 14:58:01;;;;;;;452.27;412.75;;;;;;;;;;5264152;27;20243;-86
2021/07/05 15:00:30;;;;;;;707.20;632.90;;;;;;;;;;5264953;27;20047;-86
2021/07/05 15:03:00;;;;;;;723.70;646.70;;;;;;;;;;5264911;27;20041;-86
2021/07/05 15:05:30;;;;;;;631.63;567.60;;;;;;;;;;5264456;27;20010;-86
2021/07/05 15:07:59;;;;;;;737.33;657.42;;;;;;;;;;5263893;27;20044;-87
2021/07/05 15:10:28;;;;;;;692.33;621.20;;;;;;;;;;5265153;27;20399;-86
2021/07/05 15:12:58;;;;;;;671.22;598.62;;;;;;;;;;5264357;27;20076;-85
2021/07/05 15:15:27;;;;;;;689.17;616.17;;;;;;;;;;5265990;27;20017;-86
2021/07/05 15:17:55;;;;;;;557.05;501.20;;;;;;;;;;5264126;27;20050;-86
2021/07/05 15:20:25;;;;;;;541.12;488.90;;;;;;;;;;5265259;27;20552;-86
2021/07/05 15:22:55;;;;;;;403.98;364.05;;;;;;;;;;5265139;27;20081;-85
2021/07/05 15:25:24;;;;;;;463.00;418.67;;;;;;;;;;5263997;27;20758;-87
2021/07/05 15:27:52;;;;;;;701.72;627.50;;;;;;;;;;5264660;27;20014;-85
2021/07/05 15:30:23;;;;;;;671.50;599.25;;;;;;;;;;5264884;27;20113;-85
2021/07/05 15:32:51;;;;;;;577.88;519.62;;;;;;;;;;5264760;27;20022;-85
2021/07/05 15:35:20;;;;;;;590.88;527.75;;;;;;;;;;5265252;27;20105;-86
2021/07/05 15:37:49;;;;;;;514.78;461.05;;;;;;;;;;5265300;27;20513;-86
2021/07/05 15:40:18;;;;;;;572.20;515.42;;;;;;;;;;5264690;27;20025;-86
2021/07/05 15:42:47;;;;;;;641.70;576.35;;;;;;;;;;5263972;27;20439;-86
2021/07/05 15:45:18;;;;;;;577.45;519.88;;;;;;;;;;5264884;27;20025;-85
2021/07/05 15:47:47;;;;;;;507.10;456.55;;;;;;;;;;5263067;27;20659;-85
2021/07/05 15:50:17;;;;;;;575.22;519.13;;;;;;;;;;5265411;27;20188;-85
2021/07/05 15:52:46;;;;;;;639.28;572.72;;;;;;;;;;5257263;27;20049;-85
2021/07/05 15:55:15;;;;;;;727.17;647.22;;;;;;;;;;5260505;27;20037;-86
2021/07/05 15:57:44;;;;;;;633.78;568.53;;;;;;;;;;5264749;27;20529;-86
2021/07/05 16:00:13;;;;;;;678.70;608.00;;;;;;;;;;5265533;27;20486;-86
2021/07/05 16:02:44;;;;;;;700.90;627.65;;;;;;;;;;5263804;27;20366;-86
2021/07/05 16:05:15;;;;;;;622.45;557.62;;;;;;;;;;5265768;27;20417;-85
2021/07/05 16:07:44;;;;;;;778.12;693.70;;;;;;;;;;5269374;27;20449;-85
2021/07/05 16:10:13;;;;;;;840.50;697.35;;;;;;;;;;5272143;27;20049;-85
2021/07/05 16:12:42;;;;;;;557.58;504.95;;;;;;;;;;5268052;27;20021;-85
2021/07/05 16:15:12;;;;;;;712.75;640.25;;;;;;;;;;5270113;27;20049;-86
2021/07/05 16:17:42;;;;;;;787.08;702.55;;;;;;;;;;5269448;27;20215;-86
2021/07/05 16:20:10;;;;;;;527.42;479.05;;;;;;;;;;5269185;27;20028;-86
2021/07/05 16:22:39;;;;;;;745.55;669.65;;;;;;;;;;5270223;27;20027;-85
2021/07/05 16:25:09;;;;;;;682.97;615.05;;;;;;;;;;5250314;27;20018;-85
2021/07/05 16:27:38;;;;;;;546.75;496.48;;;;;;;;;;5270248;27;20025;-86
2021/07/05 16:30:07;;;;;;;629.45;571.78;;;;;;;;;;5269833;27;20386;-85
2021/07/05 16:32:36;;;;;;;701.47;633.40;;;;;;;;;;5267844;27;20022;-86
2021/07/05 16:35:06;;;;;;;847.22;753.45;;;;;;;;;;5267841;27;20025;-85
2021/07/05 16:37:34;;;;;;;831.28;746.47;;;;;;;;;;5269379;27;20421;-85
2021/07/05 16:40:04;;;;;;;862.50;768.83;;;;;;;;;;5270971;27;20267;-86
2021/07/05 16:42:33;;;;;;;673.65;612.30;;;;;;;;;;5267898;27;20101;-86
2021/07/05 16:45:02;;;;;;;642.15;583.00;;;;;;;;;;5268549;27;20172;-85
2021/07/05 16:47:30;;;;;;;656.05;594.28;;;;;;;;;;5269465;27;20471;-86
2021/07/05 16:49:59;;;;;;;692.83;623.90;;;;;;;;;;5269832;27;20088;-86
2021/07/05 16:55:00;;;;;;;846.70;754.85;;;;;;;;;;5268445;27;20499;-85
2021/07/05 16:57:31;;;;;;;844.77;759.23;;;;;;;;;;5269226;27;20096;-85
2021/07/05 17:00:19;;;;;;;850.67;760.80;;;;;;;;;;5266522;27;20049;-86
2021/07/05 17:02:53;;;;;;;787.70;709.95;;;;;;;;;;5250871;27;20037;-86
2021/07/05 17:05:23;;;;;;;791.45;713.67;;;;;;;;;;5267910;27;20010;-85
2021/07/05 17:07:54;;;;;;;842.08;753.65;;;;;;;;;;5269933;27;20088;-85
2021/07/05 17:10:23;;;;;;;774.12;698.75;;;;;;;;;;5268673;27;20013;-86
2021/07/05 17:12:52;;;;;;;783.65;706.50;;;;;;;;;;5270648;27;20033;-85
2021/07/05 17:15:26;;;;;;;710.37;644.97;;;;;;;;;;5268667;27;20014;-85
2021/07/05 17:17:55;;;;;;;784.37;702.83;;;;;;;;;;5270362;27;20087;-85
2021/07/05 17:20:24;;;;;;;796.33;711.05;;;;;;;;;;5269239;27;20050;-85
2021/07/05 17:22:54;;;;;;;867.97;775.40;;;;;;;;;;5270100;27;20101;-85
2021/07/05 17:25:23;;;;;;;786.85;710.28;;;;;;;;;;5269238;27;20077;-84
2021/07/05 17:27:51;;;;;;;739.08;668.58;;;;;;;;;;5269299;27;20059;-85
2021/07/05 17:30:20;;;;;;;744.37;674.83;;;;;;;;;;5270414;27;20040;-85
2021/07/05 17:32:49;;;;;;;721.63;652.28;;;;;;;;;;5268153;27;20030;-85
2021/07/05 17:35:21;;;;;;;775.62;700.87;;;;;;;;;;5269788;27;20092;-85
2021/07/05 17:37:51;;;;;;;803.90;723.05;;;;;;;;;;5270587;27;20029;-85
2021/07/05 17:40:20;;;;;;;827.05;744.78;;;;;;;;;;5269451;27;20188;-85
2021/07/05 17:42:49;;;;;;;805.08;729.65;;;;;;;;;;5250624;27;20022;-86
2021/07/05 17:45:19;;;;;;;755.03;688.37;;;;;;;;;;5269016;27;20501;-85
2021/07/05 17:47:47;;;;;;;767.70;697.50;;;;;;;;;;5269407;27;20015;-85
2021/07/05 17:50:17;;;;;;;616.85;561.10;;;;;;;;;;5269975;27;20462;-85
2021/07/05 17:52:46;;;;;;;588.95;539.40;;;;;;;;;;5270076;27;20036;-85
2021/07/05 17:55:16;;;;;;;604.67;553.03;;;;;;;;;;5250235;27;20018;-85
2021/07/05 17:57:45;;;;;;;439.27;403.50;;;;;;;;;;5271281;27;20053;-85
2021/07/05 18:00:15;;;;;;;762.90;688.37;;;;;;;;;;5267211;27;20381;-85
2021/07/05 18:02:46;;;;;;;720.50;651.30;;;;;;;;;;5266577;27;20089;-86
2021/07/05 18:05:15;;;;;;;481.92;442.87;;;;;;;;;;5265503;27;20049;-86
2021/07/05 18:07:45;;;;;;;708.22;640.15;;;;;;;;;;5260800;27;20426;-86
2021/07/05 18:10:16;;;;;;;554.05;502.17;;;;;;;;;;5262862;27;20041;-86
2021/07/05 18:12:47;;;;;;;507.75;462.98;;;;;;;;;;5260948;27;20049;-86
2021/07/05 18:15:23;;;;;;;763.15;688.25;;;;;;;;;;5261040;27;20053;-86
2021/07/05 18:17:55;;;;;;;582.85;531.40;;;;;;;;;;5257985;27;20041;-86
2021/07/05 18:20:24;;;;;;;814.45;734.20;;;;;;;;;;5263544;27;20912;-87
2021/07/05 18:22:52;;;;;;;706.45;633.45;;;;;;;;;;5266409;27;20416;-85
2021/07/05 18:25:24;;;;;;;633.67;575.35;;;;;;;;;;5267405;27;20038;-85
2021/07/05 18:27:57;;;;;;;735.35;666.60;;;;;;;;;;5265487;27;20033;-87
2021/07/05 18:30:26;;;;;;;795.75;715.08;;;;;;;;;;5262829;27;20045;-86
2021/07/05 18:32:56;;;;;;;805.67;719.67;;;;;;;;;;5269722;27;20492;-86
2021/07/05 18:35:24;;;;;;;811.28;724.65;;;;;;;;;;5248775;27;20076;-84
2021/07/05 18:37:53;;;;;;;735.47;663.60;;;;;;;;;;5266648;27;20562;-86
2021/07/05 18:40:22;;;;;;;711.12;642.75;;;;;;;;;;5266811;27;20428;-85
2021/07/05 18:42:51;;;;;;;797.42;717.58;;;;;;;;;;5244710;27;20164;-86
2021/07/05 18:45:20;;;;;;;763.58;693.58;;;;;;;;;;5268980;27;20401;-86
2021/07/05 18:47:50;;;;;;;577.90;530.75;;;;;;;;;;5265784;27;20076;-87
2021/07/05 18:50:21;;;;;;;845.42;759.40;;;;;;;;;;5251452;27;20419;-85
2021/07/05 18:52:50;;;;;;;836.72;751.55;;;;;;;;;;5270402;27;20052;-85
2021/07/05 18:55:19;;;;;;;864.35;770.88;;;;;;;;;;5269999;27;20032;-85
2021/07/05 18:57:47;;;;;;;761.75;687.97;;;;;;;;;;5270865;27;20060;-85
2021/07/05 19:00:17;;;;;;;785.35;710.10;;;;;;;;;;5266273;27;20063;-86
2021/07/05 19:02:46;;;;;;;493.37;452.05;;;;;;;;;;5262852;27;20109;-86
2021/07/05 19:05:16;;;;;;;837.50;750.75;;;;;;;;;;5263461;27;20065;-86
2021/07/05 19:07:47;;;;;;;698.83;635.95;;;;;;;;;;5248829;27;20096;-85
2021/07/05 19:10:18;;;;;;;823.15;739.67;;;;;;;;;;5271112;27;20018;-86
2021/07/05 19:12:47;;;;;;;848.97;761.53;;;;;;;;;;5269114;27;20029;-85
2021/07/05 19:15:16;;;;;;;773.90;702.10;;;;;;;;;;5265889;27;20464;-85
2021/07/05 19:17:45;;;;;;;677.10;619.17;;;;;;;;;;5251437;27;20021;-86
2021/07/05 19:20:15;;;;;;;506.23;465.48;;;;;;;;;;5270346;27;20096;-86
2021/07/05 19:22:43;;;;;;;747.78;679.83;;;;;;;;;;5264556;27;20037;-85
2021/07/05 19:25:13;;;;;;;591.90;545.83;;;;;;;;;;5266722;27;20017;-86
2021/07/05 19:27:46;;;;;;;784.22;709.70;;;;;;;;;;5265564;27;20041;-85
2021/07/05 19:30:17;;;;;;;739.20;670.10;;;;;;;;;;5268536;27;20021;-85
2021/07/05 19:32:46;;;;;;;706.37;640.40;;;;;;;;;;5269899;27;20401;-85
2021/07/05 19:35:14;;;;;;;703.30;639.50;;;;;;;;;;5268599;27;20101;-86
2021/07/05 19:37:44;;;;;;;523.05;477.25;;;;;;;;;;5267214;27;20048;-86
2021/07/05 19:40:15;;;;;;;748.25;677.47;;;;;;;;;;5267419;27;20075;-86
2021/07/05 19:42:45;;;;;;;815.58;735.10;;;;;;;;;;5271482;27;20494;-85
2021/07/05 19:45:15;;;;;;;775.12;700.95;;;;;;;;;;5272740;27;20076;-85